Lancaster, MA (01523)

3:23 AM EDT on July 28, 2016 (GMT -0400)
John Sprague House | | Change Station

Elev 269 ft 42.45 °N, 71.66 °W | Updated 9 minutes ago

Clear
Clear
64.5 °F
Feels Like 64.5 °F
N
0.0
Wind Variable Wind from NW
Gusts 0.0 mph

Today
High -- | Low -- °F
--% Chance of Precip.
Yesterday
High -- | Low -- °F
Precip. -- in
Pressure 29.91 in
Visibility 10.0 miles
Clouds Clear
Dew Point 62 °F
Humidity 91%
Rainfall 0.00 in
Snow Depth Not available.
5:35 AM 8:10 PM
Waning Crescent, 35% visible
METAR KFIT 280652Z AUTO 00000KT 10SM CLR 20/14 A2991 RMK AO2 SLP127 T02000144
Pressure 29.91 in
Visibility 10.0 miles
Clouds Clear
Dew Point 62 °F
Humidity 91%
Rainfall 0.00 in
Snow Depth Not available.
5:35 AM 8:10 PM
Waning Crescent, 35% visible
METAR KFIT 280652Z AUTO 00000KT 10SM CLR 20/14 A2991 RMK AO2 SLP127 T02000144

10-Day Weather Forecast

Almanac

Astronomy

Jul. 28, 2016 Rise Set
Actual Time
Civil Twilight
Nautical Twilight
Astronomical Twilight
Moon
Length of Visible Light
Length of Day
Tomorrow will be .
, % of the Moon is Illuminated

Today's Extremes

State Highs State Lows

Community

WunderPhotos

Upload Photos

1,928,070 photos uploaded!

WunderBlog® & News

Nearby

Air Quality

  Air Quality AQ Index Pollutant
Not available.

Snow Depth

Station Depth Elevation

Earthquake Activity

City Distance Mag. Time & Date
Minimum magnitude displayed is 2.5.

Coastal Water Temperatures

Place Temperature

Stations

Nearby Weather Stations

Station Location Temp. Windchill Dew Point Humidity Wind Precip. Elev Updated Type
                   

Watches & Warnings

There are currently no watches in effect.